»·PEaware :: N804SP KBFL-KMHV

N804SP :: KBFL-KMHV

FLIGHT INFORMATION

Flight Status: Arrived
Operator: Privately registered:
United States
More flights under this callsign
Pilot: Jeffrey C. (16821)
Aircraft: CESSNA 172 SKYHAWK
(C172)
More flights by this aircraft type
Origin: KBFL Meadows
United States
Destination: KMHV Mojave
United States
More flights between these airports :: More routes between these airports
Route:
File this flight plan on PilotEdge
Remarks: CAT 6
Altitude:
(Current/Filed)
7,500ft
Speed:
(Current/Filed)
115kts
Departed: 22-Sep-18 06:44 PM
Arrived: 22-Sep-18 07:15 PM
Distance/Time
Traveled:
1nm/0:31
Distance/Time
To Go:
Arrived

Flight Plot

Page will automatically refresh every two minutes.


Map Options




Map Legend


Flown Route
Filed Route
Departure Airport
Arrival Airport
Navaid (VOR, NDB)
Fix

Horizontal Profiles

Position Reports

Time Latitude Longitude Heading Altitude Ground
Speed
22-Sep-18 18:24 35.429366 -119.046106 226 495ft 0kts
22-Sep-18 18:25 35.429366 -119.046106 226 495ft 0kts
22-Sep-18 18:26 35.429366 -119.046106 226 495ft 0kts
22-Sep-18 18:27 35.429366 -119.046106 226 495ft 0kts
22-Sep-18 18:28 35.429366 -119.046106 226 495ft 0kts
22-Sep-18 18:29 35.429366 -119.046106 226 495ft 0kts
22-Sep-18 18:30 35.429366 -119.046106 226 495ft 0kts
22-Sep-18 18:31 35.429366 -119.046106 226 495ft 0kts
22-Sep-18 18:32 35.429366 -119.046106 226 495ft 0kts
22-Sep-18 18:33 35.429366 -119.046106 226 495ft 0kts
22-Sep-18 18:34 35.429366 -119.046106 226 495ft 0kts
22-Sep-18 18:35 35.429366 -119.046106 226 495ft 0kts
22-Sep-18 18:36 35.429366 -119.046106 226 495ft 0kts
22-Sep-18 18:37 35.429366 -119.046106 226 495ft 0kts
22-Sep-18 18:38 35.429366 -119.046106 226 495ft 0kts
22-Sep-18 18:39 35.429282 -119.046209 223 494ft 6kts
22-Sep-18 18:40 35.428474 -119.047165 217 489ft 0kts
22-Sep-18 18:41 35.426984 -119.045671 135 483ft 16kts
22-Sep-18 18:42 35.425764 -119.044699 221 480ft 0kts
22-Sep-18 18:43 35.425765 -119.044699 221 480ft 0kts
22-Sep-18 18:44 35.425765 -119.044699 221 480ft 0kts
22-Sep-18 18:45 35.425765 -119.044699 221 480ft 0kts
22-Sep-18 18:46 35.429907 -119.051432 315 561ft 72kts
22-Sep-18 18:47 35.443461 -119.063461 6 1409ft 63kts
22-Sep-18 18:48 35.438475 -119.044044 147 1886ft 104kts
22-Sep-18 18:49 35.418701 -119.016094 123 2416ft 107kts
22-Sep-18 18:50 35.404913 -118.985413 116 2913ft 98kts
22-Sep-18 18:51 35.392968 -118.956020 116 3409ft 94kts
22-Sep-18 18:52 35.381841 -118.928413 116 4002ft 89kts
22-Sep-18 18:53 35.371433 -118.902692 117 4633ft 80kts
22-Sep-18 18:54 35.361277 -118.877847 118 5155ft 83kts
22-Sep-18 18:55 35.350670 -118.852239 119 5657ft 85kts
22-Sep-18 18:56 35.340117 -118.826611 119 6157ft 83kts
22-Sep-18 18:57 35.330057 -118.802073 119 6605ft 82kts
22-Sep-18 18:58 35.318716 -118.774853 119 6963ft 92kts
22-Sep-18 18:59 35.307058 -118.746670 119 7366ft 93kts
22-Sep-18 19:00 35.293871 -118.715095 119 7467ft 116kts
22-Sep-18 19:01 35.281272 -118.685086 119 7495ft 121kts
22-Sep-18 19:02 35.263448 -118.642071 119 7528ft 118kts
22-Sep-18 19:03 35.251239 -118.612541 119 7571ft 114kts
22-Sep-18 19:04 35.236688 -118.577395 119 7580ft 117kts
22-Sep-18 19:05 35.219668 -118.536327 119 7617ft 116kts
22-Sep-18 19:06 35.207459 -118.506913 119 7625ft 117kts
22-Sep-18 19:07 35.192558 -118.471039 119 7634ft 118kts
22-Sep-18 19:08 35.177607 -118.435084 119 7643ft 118kts
22-Sep-18 19:09 35.162055 -118.397838 119 7384ft 130kts
22-Sep-18 19:10 35.145569 -118.358326 119 6897ft 131kts
22-Sep-18 19:11 35.129302 -118.319348 119 6402ft 131kts
22-Sep-18 19:12 35.112583 -118.279372 119 5764ft 138kts
22-Sep-18 19:13 35.094828 -118.237007 119 4741ft 141kts
22-Sep-18 19:14 35.077022 -118.194480 120 3713ft 140kts
22-Sep-18 19:15 35.080463 -118.162932 43 3655ft 89kts
22-Sep-18 19:16 35.077947 -118.144822 177 3383ft 77kts
22-Sep-18 19:17 35.064598 -118.156775 230 2778ft 30kts
22-Sep-18 19:18 35.063853 -118.156396 136 2774ft 0kts
22-Sep-18 19:19 35.063851 -118.156393 135 2774ft 0kts
22-Sep-18 19:20 35.060817 -118.157218 194 2769ft 15kts
22-Sep-18 19:21 35.057553 -118.158299 254 2765ft 10kts
22-Sep-18 19:27 35.429276 -119.046193 213 494ft 0kts
22-Sep-18 19:28 35.429276 -119.046193 213 494ft 0kts
22-Sep-18 19:29 35.429276 -119.046193 213 494ft 0kts
22-Sep-18 19:30 35.429276 -119.046193 213 494ft 0kts
22-Sep-18 19:31 35.429276 -119.046193 213 494ft 0kts
22-Sep-18 19:32 35.429276 -119.046193 213 494ft 0kts

Navigation Log

Ident Type
1. KBFL Airport
2. KMHV Airport